Time;durP1;ratioP1;P1;durP2;ratioP2;P2;SDS_P1;SDS_P2;PMS_P1;PMS_P2;Temp;Humidity;BMP_temperature;BMP_pressure;BME280_temperature;BME280_humidity;BME280_pressure;Samples;Min_cycle;Max_cycle;Signal;HPM_P1;HPM_P2
2022/04/06 00:01:03;;;;;;;33.00;6.17;;;10.00;39.20;;;;;;5067682;28;20503;-59
2022/04/06 00:03:30;;;;;;;34.77;6.67;;;10.00;39.10;;;;;;5069316;28;21162;-59
2022/04/06 00:05:57;;;;;;;35.30;7.23;;;10.00;39.10;;;;;;5059193;28;20472;-59
2022/04/06 00:08:23;;;;;;;36.53;7.03;;;10.00;39.00;;;;;;5065606;28;20481;-57
2022/04/06 00:10:50;;;;;;;34.20;6.97;;;10.00;39.00;;;;;;5060897;28;20481;-55
2022/04/06 00:13:18;;;;;;;34.47;6.90;;;10.00;38.90;;;;;;5063232;28;20997;-58
2022/04/06 00:15:45;;;;;;;36.63;8.47;;;10.00;38.80;;;;;;5065525;28;20468;-60
2022/04/06 00:18:11;;;;;;;35.17;7.50;;;10.00;38.90;;;;;;5058877;28;20484;-57
2022/04/06 00:20:38;;;;;;;35.23;7.47;;;10.10;38.90;;;;;;5065538;28;20827;-59
2022/04/06 00:23:05;;;;;;;35.10;7.40;;;10.00;38.90;;;;;;5067248;28;21174;-61
2022/04/06 00:25:32;;;;;;;33.13;6.50;;;10.00;38.80;;;;;;5065397;28;20523;-60
2022/04/06 00:27:59;;;;;;;34.80;6.40;;;10.00;38.80;;;;;;5067377;28;20480;-60
2022/04/06 00:30:27;;;;;;;34.80;7.33;;;10.10;38.80;;;;;;5061689;28;20477;-60
2022/04/06 00:32:54;;;;;;;34.63;7.57;;;10.00;38.80;;;;;;5066771;28;20465;-59
2022/04/06 00:35:31;;;;;;;34.37;7.70;;;10.00;38.80;;;;;;5059360;28;20458;-59
2022/04/06 00:37:57;;;;;;;35.27;8.17;;;10.00;38.80;;;;;;5061561;28;20466;-59
2022/04/06 00:40:24;;;;;;;35.40;7.70;;;10.00;38.80;;;;;;5067698;28;20476;-60
2022/04/06 00:42:53;;;;;;;35.97;7.50;;;10.00;38.70;;;;;;5069123;28;20453;-58
2022/04/06 00:45:20;;;;;;;35.77;7.07;;;10.00;38.70;;;;;;5062720;28;20548;-58
2022/04/06 00:47:48;;;;;;;35.97;7.23;;;10.00;38.80;;;;;;5065811;28;20476;-60
2022/04/06 00:50:15;;;;;;;34.70;6.83;;;10.00;38.90;;;;;;5060742;28;20465;-58
2022/04/06 00:52:42;;;;;;;36.83;7.93;;;10.00;38.70;;;;;;5063083;28;20475;-58
2022/04/06 00:55:12;;;;;;;34.90;7.57;;;10.00;38.60;;;;;;5064026;28;20468;-59
2022/04/06 00:57:39;;;;;;;34.97;6.90;;;10.00;38.70;;;;;;5065527;28;20488;-59
2022/04/06 01:00:08;;;;;;;37.40;7.87;;;10.00;38.60;;;;;;5072943;28;20461;-59
2022/04/06 01:02:35;;;;;;;36.37;6.53;;;10.00;38.60;;;;;;5074141;28;20465;-59
2022/04/06 01:05:04;;;;;;;36.60;8.40;;;10.00;38.70;;;;;;5071016;28;20487;-59
2022/04/06 01:07:30;;;;;;;35.70;8.03;;;10.00;38.60;;;;;;5062551;28;20454;-59
2022/04/06 01:09:57;;;;;;;34.73;7.17;;;10.00;38.60;;;;;;5063697;28;20470;-58
2022/04/06 01:12:27;;;;;;;34.50;7.83;;;10.00;38.60;;;;;;5054397;28;20485;-59
2022/04/06 01:14:54;;;;;;;34.70;7.20;;;10.00;38.50;;;;;;5058802;28;20462;-59
2022/04/06 01:17:21;;;;;;;35.40;7.30;;;10.00;38.60;;;;;;5064154;28;20480;-59
2022/04/06 01:19:48;;;;;;;36.50;8.40;;;10.00;38.60;;;;;;5057251;28;20457;-59
2022/04/06 01:22:18;;;;;;;36.00;8.10;;;10.00;38.60;;;;;;5061080;28;20456;-59
2022/04/06 01:24:47;;;;;;;38.83;8.93;;;10.00;38.60;;;;;;5064575;28;21013;-59
2022/04/06 01:27:14;;;;;;;35.70;7.90;;;10.00;38.80;;;;;;5061499;28;20453;-59
2022/04/06 01:29:42;;;;;;;34.90;7.63;;;10.00;38.70;;;;;;5056839;28;20477;-59
2022/04/06 01:32:11;;;;;;;38.17;8.17;;;10.00;38.70;;;;;;5052324;28;20488;-58
2022/04/06 01:34:38;;;;;;;35.10;7.83;;;10.00;38.80;;;;;;5057322;28;20464;-59
2022/04/06 01:37:06;;;;;;;36.17;8.40;;;10.00;38.90;;;;;;5061543;28;21191;-59
2022/04/06 01:39:35;;;;;;;35.40;8.17;;;10.00;38.90;;;;;;5068480;28;20481;-57
2022/04/06 01:42:03;;;;;;;35.57;8.17;;;10.00;38.70;;;;;;5062605;28;20469;-60
2022/04/06 01:44:31;;;;;;;35.37;8.60;;;10.00;38.70;;;;;;5060202;28;20453;-60
2022/04/06 01:46:58;;;;;;;36.50;9.20;;;10.00;39.30;;;;;;5066016;28;20510;-59
2022/04/06 01:52:15;;;;;;;38.17;8.90;;;10.00;38.70;;;;;;5054156;28;20476;-59
2022/04/06 01:54:46;;;;;;;36.60;8.40;;;10.00;38.70;;;;;;5053114;28;20541;-57
2022/04/06 01:57:13;;;;;;;35.60;8.43;;;10.00;38.60;;;;;;5055809;28;20465;-57
2022/04/06 01:59:41;;;;;;;34.97;7.87;;;10.00;38.40;;;;;;5056814;28;20485;-57
2022/04/06 02:02:09;;;;;;;36.17;8.80;;;10.10;38.60;;;;;;5057773;28;20473;-58
2022/04/06 02:04:37;;;;;;;35.07;7.70;;;10.10;38.40;;;;;;5059432;28;20468;-60
2022/04/06 02:07:04;;;;;;;35.20;8.30;;;10.10;38.40;;;;;;5064507;28;20929;-57
2022/04/06 02:09:30;;;;;;;34.50;7.83;;;10.10;38.50;;;;;;5058972;28;20477;-59
2022/04/06 02:12:01;;;;;;;35.60;8.80;;;10.10;38.50;;;;;;5058346;28;20485;-58
2022/04/06 02:14:27;;;;;;;37.83;8.80;;;10.10;38.50;;;;;;5063200;28;20458;-58
2022/04/06 02:16:54;;;;;;;35.63;8.90;;;10.10;38.50;;;;;;5064346;28;20971;-57
2022/04/06 02:19:21;;;;;;;38.87;8.87;;;10.10;38.50;;;;;;5059023;28;20477;-57
2022/04/06 02:21:48;;;;;;;36.17;8.67;;;10.10;38.50;;;;;;5062905;28;20466;-57
2022/04/06 02:24:15;;;;;;;35.10;7.90;;;10.10;38.60;;;;;;5066161;28;20461;-57
2022/04/06 02:26:42;;;;;;;37.60;9.40;;;10.10;38.40;;;;;;5062962;28;20461;-59
2022/04/06 02:29:10;;;;;;;36.37;8.63;;;10.10;38.40;;;;;;5056831;28;20481;-60
2022/04/06 02:31:37;;;;;;;34.53;8.13;;;10.10;38.40;;;;;;5062790;28;20477;-55
2022/04/06 02:34:04;;;;;;;37.77;7.90;;;10.10;38.50;;;;;;5066673;28;20463;-59
2022/04/06 02:36:31;;;;;;;38.03;8.97;;;10.00;38.50;;;;;;5065385;28;20967;-60
2022/04/06 02:38:59;;;;;;;36.60;9.00;;;10.00;38.50;;;;;;5061422;28;21234;-60
2022/04/06 02:41:26;;;;;;;36.87;8.50;;;10.00;38.60;;;;;;5061074;28;21035;-57
2022/04/06 02:43:53;;;;;;;36.00;8.00;;;10.00;38.60;;;;;;5050720;28;20474;-59
2022/04/06 02:46:21;;;;;;;35.87;8.20;;;10.00;38.60;;;;;;5059596;28;20465;-59
2022/04/06 02:48:48;;;;;;;41.73;9.10;;;10.00;38.60;;;;;;5055869;28;20861;-60
2022/04/06 02:51:15;;;;;;;35.97;8.50;;;10.00;38.70;;;;;;5062927;28;20476;-59
2022/04/06 02:53:41;;;;;;;35.27;8.30;;;10.00;38.80;;;;;;5063287;28;20457;-57
2022/04/06 02:56:08;;;;;;;37.97;7.67;;;9.90;38.90;;;;;;5061856;28;21101;-59
2022/04/06 02:58:35;;;;;;;40.83;8.90;;;9.90;38.90;;;;;;5063739;28;20511;-57
2022/04/06 03:01:02;;;;;;;36.87;9.97;;;9.90;38.90;;;;;;5055525;28;20473;-59
2022/04/06 03:03:30;;;;;;;36.27;8.80;;;9.90;38.90;;;;;;5060844;28;20464;-57
2022/04/06 03:05:57;;;;;;;37.23;9.60;;;9.90;39.20;;;;;;5067480;28;20472;-58
2022/04/06 03:08:23;;;;;;;36.57;9.97;;;9.90;39.20;;;;;;5061072;28;20477;-57
2022/04/06 03:10:50;;;;;;;39.60;9.47;;;9.90;39.30;;;;;;5061234;28;20468;-59
2022/04/06 03:13:17;;;;;;;37.70;9.30;;;9.90;39.20;;;;;;5054716;28;20496;-59
2022/04/06 03:15:44;;;;;;;36.97;9.67;;;9.90;39.30;;;;;;5057259;28;20970;-57
2022/04/06 03:18:11;;;;;;;36.33;9.73;;;9.90;39.30;;;;;;5058660;28;20470;-59
2022/04/06 03:20:39;;;;;;;38.33;10.40;;;9.90;39.40;;;;;;5052201;28;20866;-57
2022/04/06 03:23:06;;;;;;;40.17;9.27;;;9.90;39.40;;;;;;5057694;28;20464;-57
2022/04/06 03:25:32;;;;;;;37.77;9.10;;;9.90;39.30;;;;;;5062916;28;20457;-57
2022/04/06 03:27:59;;;;;;;37.47;9.87;;;9.90;39.20;;;;;;5057713;28;20494;-57
2022/04/06 03:30:26;;;;;;;37.17;10.07;;;9.90;39.30;;;;;;5055677;28;20461;-57
2022/04/06 03:32:53;;;;;;;37.83;9.17;;;9.90;39.40;;;;;;5063847;28;20492;-57
2022/04/06 03:35:19;;;;;;;39.30;9.83;;;9.90;39.20;;;;;;5056979;28;21188;-59
2022/04/06 03:37:48;;;;;;;37.00;9.57;;;9.90;39.20;;;;;;5061925;28;20481;-57
2022/04/06 03:40:14;;;;;;;40.23;10.33;;;9.90;39.30;;;;;;5055532;28;20473;-57
2022/04/06 03:42:41;;;;;;;37.50;10.00;;;9.80;39.20;;;;;;5056632;28;20468;-58
2022/04/06 03:45:09;;;;;;;36.23;10.07;;;9.80;39.20;;;;;;5060100;28;20457;-57
2022/04/06 03:47:37;;;;;;;37.10;10.00;;;9.80;39.30;;;;;;5065219;28;20465;-57
2022/04/06 03:50:05;;;;;;;39.63;10.23;;;9.80;39.30;;;;;;5061875;28;20469;-55
2022/04/06 03:52:32;;;;;;;38.17;9.87;;;9.80;39.30;;;;;;5057051;28;20848;-58
2022/04/06 03:55:00;;;;;;;39.27;9.93;;;9.80;39.40;;;;;;5056298;28;21027;-58
2022/04/06 03:57:27;;;;;;;38.00;10.47;;;9.80;39.50;;;;;;5064454;28;21036;-57
2022/04/06 03:59:54;;;;;;;37.43;10.63;;;9.80;39.30;;;;;;5061655;28;20492;-55
2022/04/06 04:02:21;;;;;;;37.27;9.43;;;9.80;39.20;;;;;;5051407;28;20476;-56
2022/04/06 04:04:48;;;;;;;38.60;10.67;;;9.80;39.20;;;;;;5064629;28;20473;-58
2022/04/06 04:07:21;;;;;;;38.77;10.90;;;9.80;39.20;;;;;;5064367;28;20962;-59
2022/04/06 04:09:49;;;;;;;35.90;9.80;;;9.80;39.20;;;;;;5064720;28;20461;-59
2022/04/06 04:12:17;;;;;;;38.73;11.30;;;9.80;39.20;;;;;;5066634;28;20484;-58
2022/04/06 04:14:44;;;;;;;40.00;10.80;;;9.80;39.10;;;;;;5055896;28;20465;-57
2022/04/06 04:17:12;;;;;;;38.13;10.50;;;9.80;39.10;;;;;;5062292;28;20472;-60
2022/04/06 04:19:38;;;;;;;38.00;10.90;;;9.90;39.20;;;;;;5064122;28;20516;-59
2022/04/06 04:22:06;;;;;;;39.17;9.63;;;9.90;39.10;;;;;;5064332;28;20468;-59
2022/04/06 04:24:33;;;;;;;37.00;10.47;;;9.80;39.20;;;;;;5059142;28;20468;-60
2022/04/06 04:26:59;;;;;;;36.90;10.20;;;9.90;39.20;;;;;;5063477;28;20473;-60
2022/04/06 04:29:27;;;;;;;37.93;10.70;;;9.80;39.10;;;;;;5068864;28;20492;-57
2022/04/06 04:31:54;;;;;;;39.70;10.80;;;9.80;39.00;;;;;;5068907;28;20473;-60
2022/04/06 04:34:21;;;;;;;40.40;10.20;;;9.80;39.00;;;;;;5068364;28;20457;-58
2022/04/06 04:36:48;;;;;;;40.70;11.07;;;9.80;39.00;;;;;;5057880;28;20489;-59
2022/04/06 04:39:15;;;;;;;39.93;11.23;;;9.80;39.10;;;;;;5063231;28;20492;-57
2022/04/06 04:41:42;;;;;;;38.53;10.90;;;9.80;39.20;;;;;;5058672;28;20458;-57
2022/04/06 04:44:08;;;;;;;37.33;10.20;;;9.80;39.00;;;;;;5055946;28;20453;-60
2022/04/06 04:46:37;;;;;;;38.20;10.80;;;9.80;39.00;;;;;;5060693;28;20545;-59
2022/04/06 04:49:04;;;;;;;38.63;10.53;;;9.80;39.10;;;;;;5068951;28;20469;-57
2022/04/06 04:51:31;;;;;;;38.73;11.10;;;9.80;39.10;;;;;;5063741;28;20907;-57
2022/04/06 04:53:59;;;;;;;39.47;11.20;;;9.80;39.10;;;;;;5060070;28;20838;-58
2022/04/06 04:56:28;;;;;;;37.60;10.97;;;9.90;39.40;;;;;;5067267;28;20556;-57
2022/04/06 04:58:55;;;;;;;39.20;11.77;;;9.90;39.40;;;;;;5065089;28;20491;-57
2022/04/06 05:01:21;;;;;;;39.50;11.03;;;9.90;39.50;;;;;;5058045;28;20481;-58
2022/04/06 05:03:50;;;;;;;38.90;11.47;;;9.90;39.60;;;;;;5063691;28;20456;-57
2022/04/06 05:06:17;;;;;;;39.17;11.90;;;9.90;40.20;;;;;;5062608;28;20473;-57
2022/04/06 05:08:44;;;;;;;37.73;9.97;;;9.90;39.60;;;;;;5053777;28;20469;-58
2022/04/06 05:11:10;;;;;;;39.13;11.23;;;9.90;39.50;;;;;;5069558;28;20457;-60
2022/04/06 05:13:37;;;;;;;36.87;10.33;;;9.80;39.50;;;;;;5059257;28;20481;-61
2022/04/06 05:16:05;;;;;;;38.77;10.33;;;9.90;39.50;;;;;;5065439;28;20461;-60
2022/04/06 05:18:31;;;;;;;37.70;10.77;;;9.90;40.00;;;;;;5054115;28;20486;-59
2022/04/06 05:21:00;;;;;;;38.70;11.43;;;9.80;39.40;;;;;;5061849;28;20458;-57
2022/04/06 05:23:27;;;;;;;38.07;11.37;;;9.90;39.40;;;;;;5062345;28;20697;-59
2022/04/06 05:25:53;;;;;;;41.70;11.77;;;9.90;39.40;;;;;;5060106;28;20454;-59
2022/04/06 05:28:20;;;;;;;37.20;10.60;;;9.90;39.20;;;;;;5052768;28;20931;-57
2022/04/06 05:30:47;;;;;;;36.90;10.23;;;9.90;39.10;;;;;;5067774;28;20465;-57
2022/04/06 05:33:14;;;;;;;37.20;9.90;;;10.00;39.10;;;;;;5065184;28;20838;-57
2022/04/06 05:35:41;;;;;;;37.80;11.40;;;10.00;39.10;;;;;;5068368;28;20449;-57
2022/04/06 05:38:09;;;;;;;39.83;12.37;;;10.00;38.90;;;;;;5058858;28;20484;-59
2022/04/06 05:40:36;;;;;;;38.00;10.83;;;10.00;38.90;;;;;;5061289;28;20500;-57
2022/04/06 05:43:04;;;;;;;38.23;11.00;;;10.10;38.90;;;;;;5064027;28;20461;-57
2022/04/06 05:45:31;;;;;;;38.77;10.97;;;10.10;38.90;;;;;;5060821;28;20464;-59
2022/04/06 05:47:57;;;;;;;37.33;10.20;;;10.20;39.40;;;;;;5065720;28;20481;-58
2022/04/06 05:50:24;;;;;;;39.10;11.00;;;10.20;38.60;;;;;;5067545;28;20568;-58
2022/04/06 05:52:51;;;;;;;38.43;10.60;;;10.30;38.60;;;;;;5068957;28;20477;-57
2022/04/06 05:55:19;;;;;;;38.33;11.03;;;10.30;38.50;;;;;;5062147;28;20484;-58
2022/04/06 05:57:46;;;;;;;37.20;10.10;;;10.30;38.50;;;;;;5068867;28;20878;-58
2022/04/06 06:00:14;;;;;;;38.10;10.80;;;10.40;38.20;;;;;;5065359;28;20462;-58
2022/04/06 06:02:42;;;;;;;36.97;10.60;;;10.40;38.10;;;;;;5065951;28;20492;-58
2022/04/06 06:05:09;;;;;;;36.40;9.10;;;10.50;38.00;;;;;;5064552;28;20464;-56
2022/04/06 06:07:36;;;;;;;37.20;10.63;;;10.60;37.70;;;;;;5068523;28;20457;-58
2022/04/06 06:10:04;;;;;;;37.20;10.03;;;10.60;37.40;;;;;;5063582;28;20469;-58
2022/04/06 06:12:32;;;;;;;39.43;9.90;;;10.60;37.50;;;;;;5061105;28;20474;-59
2022/04/06 06:14:58;;;;;;;37.70;9.90;;;10.70;37.40;;;;;;5068267;28;20460;-59
2022/04/06 06:17:25;;;;;;;36.50;9.00;;;10.70;37.50;;;;;;5064636;28;20453;-58
2022/04/06 06:19:52;;;;;;;37.57;10.90;;;10.70;37.50;;;;;;5063222;28;20468;-57
2022/04/06 06:22:19;;;;;;;37.67;10.60;;;10.70;37.50;;;;;;5058509;28;20461;-57
2022/04/06 06:24:45;;;;;;;37.47;10.10;;;10.80;37.50;;;;;;5068605;28;20461;-58
2022/04/06 06:27:14;;;;;;;35.70;9.70;;;10.80;37.50;;;;;;5068961;28;20457;-58
2022/04/06 06:29:42;;;;;;;36.97;9.50;;;10.80;37.30;;;;;;5062481;28;20482;-58
2022/04/06 06:32:09;;;;;;;36.70;9.40;;;10.90;37.90;;;;;;5054809;28;20469;-57
2022/04/06 06:34:35;;;;;;;35.20;9.47;;;10.90;37.20;;;;;;5062670;28;20457;-60
2022/04/06 06:37:02;;;;;;;35.80;9.00;;;10.90;37.00;;;;;;5064655;28;21017;-57
2022/04/06 06:39:29;;;;;;;34.83;8.53;;;11.00;36.90;;;;;;5069531;28;20472;-57
2022/04/06 06:41:56;;;;;;;36.53;10.30;;;11.00;36.80;;;;;;5061078;28;20887;-59
2022/04/06 06:44:22;;;;;;;34.97;8.00;;;11.10;36.80;;;;;;5060317;28;20464;-60
2022/04/06 06:46:50;;;;;;;34.57;7.90;;;11.20;36.20;;;;;;5068153;28;20465;-57
2022/04/06 06:49:17;;;;;;;37.40;7.90;;;11.30;36.10;;;;;;5065960;28;20477;-57
2022/04/06 06:51:44;;;;;;;34.50;8.23;;;11.40;35.80;;;;;;5062744;28;20821;-57
2022/04/06 06:54:11;;;;;;;34.80;8.37;;;11.50;35.80;;;;;;5063277;28;20497;-58
2022/04/06 06:56:38;;;;;;;34.90;8.43;;;11.60;35.30;;;;;;5067981;28;20461;-57
2022/04/06 06:59:05;;;;;;;33.77;8.10;;;11.70;35.10;;;;;;5068419;28;20473;-59
2022/04/06 07:01:31;;;;;;;33.40;7.70;;;11.80;34.90;;;;;;5066652;28;20469;-58
2022/04/06 07:03:59;;;;;;;37.17;8.50;;;11.90;34.70;;;;;;5054704;28;20459;-66
2022/04/06 07:06:27;;;;;;;33.97;8.40;;;12.00;34.50;;;;;;5064799;28;20456;-58
2022/04/06 07:08:54;;;;;;;34.23;7.37;;;12.10;34.60;;;;;;5066825;28;20491;-57
2022/04/06 07:11:21;;;;;;;36.10;8.60;;;12.20;34.00;;;;;;5061618;28;20461;-57
2022/04/06 07:13:48;;;;;;;32.83;7.90;;;12.30;33.90;;;;;;5061504;28;20482;-59
2022/04/06 07:16:15;;;;;;;32.80;7.00;;;12.50;33.20;;;;;;5068078;28;20532;-57
2022/04/06 07:18:42;;;;;;;33.70;7.40;;;12.60;33.00;;;;;;5065673;28;20485;-60
2022/04/06 07:21:10;;;;;;;34.83;8.23;;;12.80;33.00;;;;;;5066687;28;20464;-60
2022/04/06 07:23:38;;;;;;;32.33;7.23;;;13.00;32.20;;;;;;5061478;28;20460;-60
2022/04/06 07:26:05;;;;;;;35.13;7.87;;;13.20;31.60;;;;;;5067438;28;21065;-60
2022/04/06 07:28:32;;;;;;;33.13;7.70;;;13.30;30.60;;;;;;5059296;28;20473;-60
2022/04/06 07:30:59;;;;;;;32.73;7.57;;;13.40;30.20;;;;;;5061538;28;20477;-61
2022/04/06 07:33:26;;;;;;;35.37;9.20;;;13.60;30.30;;;;;;5070683;28;20477;-59
2022/04/06 07:35:53;;;;;;;32.60;6.83;;;14.70;28.70;;;;;;5067870;28;20465;-58
2022/04/06 07:38:21;;;;;;;35.27;7.10;;;15.30;25.50;;;;;;5071535;28;21125;-59
2022/04/06 07:40:47;;;;;;;31.40;6.20;;;15.30;25.10;;;;;;5069680;28;20473;-58
2022/04/06 07:43:14;;;;;;;31.67;7.07;;;15.30;25.00;;;;;;5066580;28;20457;-58
2022/04/06 07:45:41;;;;;;;32.17;6.83;;;15.70;25.30;;;;;;5064429;28;20518;-59
2022/04/06 07:48:09;;;;;;;31.00;6.40;;;16.40;23.20;;;;;;5071639;28;20480;-59
2022/04/06 07:50:36;;;;;;;30.20;5.90;;;17.00;21.60;;;;;;5071581;28;20452;-59
2022/04/06 07:53:03;;;;;;;32.50;5.90;;;18.60;20.70;;;;;;5065073;28;20484;-59
2022/04/06 07:55:31;;;;;;;30.70;6.30;;;22.20;15.50;;;;;;5077528;28;20461;-59
2022/04/06 07:57:58;;;;;;;28.13;5.07;;;25.70;9.10;;;;;;5084817;28;20479;-59
2022/04/06 08:00:25;;;;;;;27.27;4.90;;;28.70;4.70;;;;;;5086489;28;20453;-60
2022/04/06 08:02:52;;;;;;;27.50;5.10;;;31.30;1.70;;;;;;5086309;28;20735;-61
2022/04/06 08:05:20;;;;;;;27.77;4.83;;;33.40;1.00;;;;;;5082307;28;20525;-60
2022/04/06 08:07:50;;;;;;;27.43;4.80;;;34.90;1.00;;;;;;5062960;28;20466;-59
2022/04/06 08:10:18;;;;;;;24.33;4.03;;;36.10;1.00;;;;;;5068605;28;20457;-60
2022/04/06 08:12:46;;;;;;;23.87;3.90;;;36.70;1.00;;;;;;5060672;28;20968;-61
2022/04/06 08:15:15;;;;;;;23.23;3.80;;;37.50;1.00;;;;;;5067932;28;20457;-59
2022/04/06 08:17:43;;;;;;;23.13;3.23;;;38.10;1.00;;;;;;5067434;28;20480;-59
2022/04/06 08:20:11;;;;;;;23.37;3.70;;;39.10;1.00;;;;;;5056644;28;20468;-58
2022/04/06 08:22:38;;;;;;;22.73;3.27;;;39.90;1.00;;;;;;5070812;28;20461;-58
2022/04/06 08:25:11;;;;;;;23.97;3.10;;;40.80;1.00;;;;;;5071391;28;20457;-60
2022/04/06 08:27:41;;;;;;;22.50;3.27;;;41.10;1.00;;;;;;5065831;28;20468;-58
2022/04/06 08:30:11;;;;;;;21.87;2.90;;;40.40;1.00;;;;;;5070889;28;20461;-59
2022/04/06 08:32:38;;;;;;;21.93;2.87;;;39.50;1.00;;;;;;5070057;28;20468;-61
2022/04/06 08:35:05;;;;;;;22.40;3.07;;;39.30;1.00;;;;;;5067414;28;20462;-60
2022/04/06 08:37:36;;;;;;;22.40;3.13;;;39.80;1.00;;;;;;5056042;28;20466;-60
2022/04/06 08:40:04;;;;;;;22.17;2.70;;;39.50;1.00;;;;;;5069629;28;20552;-60
2022/04/06 08:42:41;;;;;;;22.80;2.60;;;40.60;1.00;;;;;;5069991;28;20461;-61
2022/04/06 08:45:45;;;;;;;23.33;2.47;;;41.00;1.00;;;;;;5069905;28;20944;-60
2022/04/06 08:48:12;;;;;;;21.60;2.43;;;39.50;1.00;;;;;;5056541;28;21038;-60
2022/04/06 08:50:39;;;;;;;22.17;2.57;;;37.10;1.00;;;;;;5070253;28;20547;-61
2022/04/06 08:53:08;;;;;;;23.17;2.40;;;35.50;1.00;;;;;;5067274;28;20530;-60
2022/04/06 08:55:35;;;;;;;22.60;2.40;;;34.90;1.00;;;;;;5068575;28;20457;-60
2022/04/06 08:58:03;;;;;;;22.67;2.40;;;35.50;1.00;;;;;;5061396;28;20600;-60
2022/04/06 09:00:30;;;;;;;22.83;2.37;;;35.70;1.00;;;;;;5064643;28;20465;-60
2022/04/06 09:02:58;;;;;;;22.60;2.20;;;34.80;1.00;;;;;;5069691;28;20464;-60
2022/04/06 09:05:28;;;;;;;25.20;2.40;;;34.80;1.00;;;;;;5067873;28;20460;-59
2022/04/06 09:07:55;;;;;;;22.90;2.70;;;34.80;1.00;;;;;;5063691;28;20499;-59
2022/04/06 09:10:31;;;;;;;22.63;1.93;;;33.80;1.00;;;;;;5062214;28;20849;-60
2022/04/06 09:13:12;;;;;;;22.70;2.20;;;34.00;1.00;;;;;;5068240;28;20461;-61
2022/04/06 09:15:39;;;;;;;23.07;2.30;;;35.00;1.00;;;;;;5059793;28;20453;-60
2022/04/06 09:18:07;;;;;;;23.70;2.03;;;35.00;1.00;;;;;;5066585;28;20481;-59
2022/04/06 09:20:34;;;;;;;23.27;2.47;;;35.00;1.00;;;;;;5056749;28;20453;-60
2022/04/06 09:23:02;;;;;;;22.90;2.33;;;34.30;1.00;;;;;;5062330;28;20862;-59
2022/04/06 09:25:34;;;;;;;23.70;2.70;;;33.60;1.00;;;;;;5069578;28;20499;-60
2022/04/06 09:28:07;;;;;;;23.80;2.63;;;34.50;1.00;;;;;;5060988;28;20501;-60
2022/04/06 09:30:35;;;;;;;23.70;2.27;;;33.80;1.00;;;;;;5063339;28;20541;-59
2022/04/06 09:33:03;;;;;;;23.33;2.60;;;33.50;1.00;;;;;;5069406;28;21089;-60
2022/04/06 09:35:34;;;;;;;23.13;2.93;;;34.90;1.00;;;;;;5069488;28;20485;-61
2022/04/06 09:38:13;;;;;;;23.20;2.60;;;34.90;1.00;;;;;;5065125;28;20489;-60
2022/04/06 09:40:40;;;;;;;24.10;2.93;;;33.60;1.00;;;;;;5063386;28;20473;-61
2022/04/06 09:43:08;;;;;;;24.17;3.00;;;32.20;1.00;;;;;;5067397;28;20469;-60
2022/04/06 09:48:19;;;;;;;23.30;2.70;;;34.10;1.00;;;;;;5062714;28;20460;-59
2022/04/06 09:50:57;;;;;;;23.17;2.87;;;36.20;1.00;;;;;;5058008;28;20462;-59
2022/04/06 09:53:27;;;;;;;22.80;2.47;;;37.00;1.00;;;;;;5068013;28;20469;-60
2022/04/06 09:55:56;;;;;;;23.07;2.80;;;37.60;1.00;;;;;;5064609;28;20485;-59
2022/04/06 09:58:24;;;;;;;22.97;2.50;;;38.10;1.00;;;;;;5061105;28;20504;-59
2022/04/06 10:00:52;;;;;;;22.80;2.43;;;38.70;1.00;;;;;;5060393;28;20478;-61
2022/04/06 10:03:21;;;;;;;22.43;2.40;;;38.70;1.00;;;;;;5068271;28;20506;-60
2022/04/06 10:05:51;;;;;;;22.13;2.50;;;39.00;1.00;;;;;;5068377;28;20461;-60
2022/04/06 10:08:22;;;;;;;22.20;2.60;;;38.10;1.00;;;;;;5068770;28;21034;-60
2022/04/06 10:10:53;;;;;;;21.93;2.73;;;38.90;1.00;;;;;;5062408;28;20453;-58
2022/04/06 10:13:20;;;;;;;22.17;2.47;;;38.50;1.00;;;;;;5060746;28;20590;-60
2022/04/06 10:15:47;;;;;;;22.40;2.80;;;36.60;1.00;;;;;;5068800;28;21175;-60
2022/04/06 10:18:14;;;;;;;22.47;2.57;;;36.80;1.00;;;;;;5066397;28;20481;-59
2022/04/06 10:20:46;;;;;;;24.23;2.67;;;35.90;1.00;;;;;;5065498;28;20491;-60
2022/04/06 10:23:22;;;;;;;23.13;2.80;;;33.80;1.00;;;;;;5062251;28;20465;-60
2022/04/06 10:25:59;;;;;;;23.13;2.67;;;34.50;1.00;;;;;;5068359;28;20456;-59
2022/04/06 10:28:26;;;;;;;22.90;2.73;;;36.50;1.00;;;;;;5061287;28;20485;-59
2022/04/06 10:31:14;;;;;;;22.70;2.23;;;36.30;1.00;;;;;;5061743;28;20469;-59
2022/04/06 10:33:41;;;;;;;36.50;3.47;;;37.80;1.00;;;;;;5052368;28;20485;-59
2022/04/06 10:36:23;;;;;;;23.10;2.60;;;38.70;1.00;;;;;;5055742;28;20467;-59
2022/04/06 10:39:17;;;;;;;22.60;2.47;;;37.20;1.00;;;;;;5058085;28;20539;-59
2022/04/06 10:42:12;;;;;;;22.93;2.73;;;36.50;1.00;;;;;;5065661;28;20500;-59
2022/04/06 10:44:40;;;;;;;23.37;2.63;;;35.80;1.00;;;;;;5062909;28;20449;-58
2022/04/06 10:47:08;;;;;;;23.10;2.50;;;35.10;1.00;;;;;;5068323;28;20460;-59
2022/04/06 10:49:35;;;;;;;23.37;2.30;;;35.00;1.00;;;;;;5067240;28;20477;-58
2022/04/06 10:52:19;;;;;;;23.20;2.63;;;35.50;1.00;;;;;;5060512;28;20466;-58
2022/04/06 10:54:47;;;;;;;23.80;2.77;;;34.30;1.00;;;;;;5067803;28;20568;-60
2022/04/06 10:57:14;;;;;;;24.43;2.30;;;32.40;1.00;;;;;;5060186;28;20452;-60
2022/04/06 10:59:40;;;;;;;25.47;2.90;;;30.80;1.00;;;;;;5053462;28;20895;-60
2022/04/06 11:02:23;;;;;;;24.13;2.40;;;29.60;1.00;;;;;;5058070;28;20489;-59
2022/04/06 11:04:51;;;;;;;24.60;2.70;;;28.30;1.00;;;;;;5058199;28;21155;-59
2022/04/06 11:10:29;;;;;;;24.77;2.60;;;26.30;1.00;;;;;;5061821;28;20851;-58
2022/04/06 11:12:59;;;;;;;24.97;2.70;;;25.40;1.90;;;;;;5061533;28;20473;-59
2022/04/06 11:15:37;;;;;;;25.80;2.43;;;25.10;2.70;;;;;;5071043;28;20961;-60
2022/04/06 11:18:05;;;;;;;25.40;2.90;;;24.70;3.20;;;;;;5065654;28;21046;-59
2022/04/06 11:20:33;;;;;;;25.30;3.00;;;24.60;4.40;;;;;;5071414;28;20823;-59
2022/04/06 11:23:01;;;;;;;27.67;3.17;;;24.40;4.30;;;;;;5068883;28;20469;-59
2022/04/06 11:25:30;;;;;;;25.00;2.57;;;24.30;4.10;;;;;;5062823;28;20532;-58
2022/04/06 11:28:07;;;;;;;25.40;2.50;;;24.00;4.90;;;;;;5070205;28;20485;-58
2022/04/06 11:30:34;;;;;;;27.00;3.00;;;23.70;5.10;;;;;;5070793;28;20508;-59
2022/04/06 11:33:02;;;;;;;25.90;3.60;;;23.50;6.30;;;;;;5064868;28;20461;-59
2022/04/06 11:35:30;;;;;;;25.73;3.50;;;23.20;6.00;;;;;;5065175;28;20477;-59
2022/04/06 11:37:58;;;;;;;27.60;2.83;;;23.00;6.20;;;;;;5071302;28;20484;-57
2022/04/06 11:40:26;;;;;;;25.67;2.40;;;22.90;6.00;;;;;;5070014;28;20472;-60
2022/04/06 11:42:55;;;;;;;26.30;2.60;;;22.60;6.20;;;;;;5065358;28;20870;-60
2022/04/06 11:45:23;;;;;;;25.27;2.70;;;22.20;8.00;;;;;;5066176;28;20465;-59
2022/04/06 11:47:54;;;;;;;25.53;3.13;;;22.10;8.70;;;;;;5070480;28;20477;-60
2022/04/06 11:50:21;;;;;;;25.67;2.90;;;22.00;8.80;;;;;;5070700;28;20943;-60
2022/04/06 11:52:48;;;;;;;25.60;2.57;;;21.80;9.50;;;;;;5068475;28;20472;-59
2022/04/06 11:55:15;;;;;;;25.67;2.63;;;21.60;9.80;;;;;;5065045;28;20513;-59
2022/04/06 11:57:45;;;;;;;25.70;2.67;;;21.30;8.70;;;;;;5060892;28;20492;-59
2022/04/06 12:00:17;;;;;;;26.90;3.27;;;21.00;8.90;;;;;;5064076;28;20464;-59
2022/04/06 12:02:51;;;;;;;27.40;3.10;;;20.90;9.60;;;;;;5058649;28;20501;-60
2022/04/06 12:05:18;;;;;;;27.10;3.27;;;20.80;10.10;;;;;;5060843;28;20461;-59
2022/04/06 12:07:45;;;;;;;26.50;3.13;;;20.80;10.50;;;;;;5064448;28;20480;-60
2022/04/06 12:10:13;;;;;;;26.63;3.50;;;20.70;11.30;;;;;;5061093;28;21207;-60
2022/04/06 12:12:41;;;;;;;26.23;2.87;;;20.70;10.20;;;;;;5068669;28;20453;-59
2022/04/06 12:15:09;;;;;;;25.80;2.60;;;20.60;10.40;;;;;;5058560;28;20565;-59
2022/04/06 12:17:39;;;;;;;26.37;2.70;;;20.50;10.30;;;;;;5065084;28;20470;-59
2022/04/06 12:20:22;;;;;;;26.20;2.60;;;20.40;10.30;;;;;;5068291;28;20511;-59
2022/04/06 12:23:00;;;;;;;27.57;3.37;;;20.30;11.20;;;;;;5054701;28;20824;-60
2022/04/06 12:25:28;;;;;;;26.67;3.40;;;20.20;11.20;;;;;;5062238;28;20458;-60
2022/04/06 12:28:10;;;;;;;28.13;3.30;;;20.10;11.70;;;;;;5068543;28;20507;-59
2022/04/06 12:30:54;;;;;;;27.00;3.00;;;20.00;10.80;;;;;;5063275;28;21037;-59
2022/04/06 12:33:39;;;;;;;27.27;2.77;;;19.80;11.70;;;;;;5052714;28;20465;-59
2022/04/06 12:36:12;;;;;;;26.73;2.67;;;19.80;11.30;;;;;;5059648;28;20500;-58
2022/04/06 12:38:40;;;;;;;26.60;2.60;;;19.70;11.60;;;;;;5058511;28;20481;-60
2022/04/06 12:41:09;;;;;;;27.80;3.03;;;19.70;11.90;;;;;;5060632;28;20464;-59
2022/04/06 12:43:45;;;;;;;27.50;2.57;;;19.80;11.50;;;;;;5064708;28;20453;-60
2022/04/06 12:46:12;;;;;;;26.20;2.33;;;19.80;11.20;;;;;;5060013;28;20472;-59
2022/04/06 12:48:40;;;;;;;26.47;2.93;;;19.90;11.60;;;;;;5064313;28;20556;-58
2022/04/06 12:51:23;;;;;;;26.23;2.60;;;19.90;11.80;;;;;;5068340;28;20449;-60
2022/04/06 12:53:51;;;;;;;26.30;3.17;;;20.10;12.30;;;;;;5065393;28;20454;-60
2022/04/06 12:56:23;;;;;;;26.13;3.80;;;20.20;12.00;;;;;;5065011;28;20454;-60